Etusivu
METAR-TAF:

METAR-TAF

Lentoasemat :

Cut Bank, Montana, Yhdysvallat

Leveyspiiri: 48-36-30N, Pituuspiiri: 112-22-34W, korkeus merenpinnasta: 1175 m

Tämänhetkinen sää

Tämä raportti tehtiin 5 minuuttia sitten, kello 15.56 UTC
Tuuli 15 kn lännestä
Lämpötila 7°C
Kosteus 49%
Ilmanpaine 1015 hPa
Näkyvyys: 16.1 km
selkeää

METAR: KCTB 201556Z AUTO 26015KT 10SM CLR 07/M03 A2998 RMK AO2 SLP167 T00721028

Aika: 09:01 (16:01 UTC)

Sääennuste

Tämä raportti tehtiin 4 tuntia ja 41 minuuttia sitten, kello 11.20 UTC
Ennuste voimassa 20. päivästä klo 12 UTC - 21. päivään klo 12 UTC
Tuuli 11 kn lännestä
Näkyvyys: 10 km
selkeää
From 20. päivästä klo 1600 UTC
Tuuli 19 kn lännestä puuskistuen 27 kn:hen
Näkyvyys: 10 km
selkeää
From 21. päivästä klo 0000 UTC
Tuuli 11 kn lännestä
Näkyvyys: 10 km
selkeää

TAF: KCTB 201120Z 2012/2112 28011KT P6SM SKC FM201600 26019G27KT P6SM SKC FM210000 26011KT P6SM SKC

Säähavainnot ja -ennusteet yli 4000 lentoasemalta (METAR- ja TAF-raportit).

Käytössä olevat sääasemat on merkitty karttaan keltaisilla ja punaisilla pisteillä.

Aseta hiiri pisteen päälle nähdäksesi sääaseman nimen.

Klikkaa sitten nähdäksesi säähavainnot ja -ennusteet.

Kartan vaihtaminen: klikkaa mustalla rastilla varustettuja vihreitä pisteitä, niin voit zoomata sisään; viivalla varustettua vihreää pistettä, niin voit zoomata ulos tai vihreitä nuolia, niin pääset viereisille kartoille.


METAR-TAF: